TimeEDT,TemperatureF,Dew PointF,Humidity,Sea Level PressureIn,VisibilityMPH,Wind Direction,Wind SpeedMPH,Gust SpeedMPH,PrecipitationIn,Events,Conditions,WindDirDegrees,DateUTC
12:15 AM,71.4,69.3,93,30.07,10.0,Calm,Calm,-,N/A,,Clear,0,2013-08-03 04:15:00
12:35 AM,70.9,69.3,95,30.07,10.0,Calm,Calm,-,N/A,,Clear,0,2013-08-03 04:35:00
12:55 AM,71.8,68.2,88,30.07,10.0,SSW,3.5,-,N/A,,Clear,200,2013-08-03 04:55:00
1:15 AM,71.2,68.2,90,30.07,10.0,Calm,Calm,-,N/A,,Clear,0,2013-08-03 05:15:00
1:35 AM,72.7,68.5,87,30.07,10.0,Calm,Calm,-,N/A,,Clear,0,2013-08-03 05:35:00
1:55 AM,72.3,69.1,89,30.07,10.0,Calm,Calm,-,N/A,,Clear,0,2013-08-03 05:55:00
2:15 AM,70.9,69.1,94,30.06,10.0,Calm,Calm,-,N/A,,Clear,0,2013-08-03 06:15:00
2:35 AM,71.4,68.9,92,30.05,10.0,Calm,Calm,-,N/A,,Clear,0,2013-08-03 06:35:00
2:55 AM,72.5,70.7,94,30.05,10.0,Calm,Calm,-,N/A,,Clear,0,2013-08-03 06:55:00
3:15 AM,72.5,71.4,96,30.04,7.0,Calm,Calm,-,N/A,,Clear,0,2013-08-03 07:15:00
3:35 AM,71.1,70.0,96,30.04,10.0,Calm,Calm,-,N/A,,Clear,0,2013-08-03 07:35:00
3:55 AM,71.1,70.3,98,30.04,7.0,Calm,Calm,-,N/A,,Clear,0,2013-08-03 07:55:00
4:15 AM,70.9,69.8,96,30.04,10.0,Calm,Calm,-,N/A,,Clear,0,2013-08-03 08:15:00
4:35 AM,71.2,70.7,98,30.04,5.0,Calm,Calm,-,N/A,,Clear,0,2013-08-03 08:35:00
4:55 AM,73.0,72.0,96,30.04,7.0,Calm,Calm,-,N/A,,Clear,0,2013-08-03 08:55:00
5:15 AM,72.9,72.1,98,30.04,5.0,Calm,Calm,-,N/A,,Clear,0,2013-08-03 09:15:00
5:35 AM,73.6,72.7,97,30.05,5.0,Calm,Calm,-,N/A,,Clear,0,2013-08-03 09:35:00
5:55 AM,73.4,72.3,96,30.05,5.0,Calm,Calm,-,N/A,,Clear,0,2013-08-03 09:55:00
6:15 AM,73.4,72.7,98,30.05,5.0,Calm,Calm,-,N/A,,Clear,0,2013-08-03 10:15:00
6:35 AM,72.9,72.5,99,30.06,3.0,Calm,Calm,-,N/A,,Clear,0,2013-08-03 10:35:00
6:55 AM,73.4,72.9,98,30.06,4.0,Calm,Calm,-,N/A,,Clear,0,2013-08-03 10:55:00
7:15 AM,73.8,72.7,96,30.06,4.0,Calm,Calm,-,N/A,,Clear,0,2013-08-03 11:15:00
7:35 AM,73.4,72.5,97,30.06,4.0,South,3.5,-,N/A,,Clear,180,2013-08-03 11:35:00
7:55 AM,74.5,73.2,96,30.06,4.0,SSW,3.5,-,N/A,,Clear,210,2013-08-03 11:55:00
8:15 AM,75.2,73.4,94,30.06,4.0,South,3.5,-,N/A,,Scattered Clouds,190,2013-08-03 12:15:00
8:35 AM,75.6,73.6,94,30.06,5.0,SSW,4.6,-,N/A,,Scattered Clouds,200,2013-08-03 12:35:00
8:55 AM,76.1,73.6,92,30.07,5.0,SSW,6.9,-,N/A,,Scattered Clouds,200,2013-08-03 12:55:00
9:15 AM,76.6,73.8,91,30.07,5.0,SW,6.9,-,N/A,,Clear,220,2013-08-03 13:15:00
9:35 AM,77.5,73.4,87,30.06,7.0,SSW,6.9,-,N/A,,Clear,210,2013-08-03 13:35:00
9:55 AM,78.3,73.6,85,30.06,7.0,South,6.9,-,N/A,,Clear,190,2013-08-03 13:55:00
10:15 AM,79.5,73.9,83,30.06,7.0,SW,6.9,-,N/A,,Clear,220,2013-08-03 14:15:00
10:35 AM,79.2,73.8,83,30.06,7.0,SW,5.8,-,N/A,,Scattered Clouds,220,2013-08-03 14:35:00
10:55 AM,79.2,73.8,83,30.06,7.0,SSW,6.9,-,N/A,,Scattered Clouds,200,2013-08-03 14:55:00
11:15 AM,79.3,73.8,83,30.06,7.0,South,5.8,-,N/A,,Clear,180,2013-08-03 15:15:00
11:35 AM,80.8,73.6,79,30.05,7.0,SSE,8.1,-,N/A,,Scattered Clouds,160,2013-08-03 15:35:00
11:55 AM,82.0,72.9,74,30.05,10.0,SSW,5.8,-,N/A,,Scattered Clouds,210,2013-08-03 15:55:00
12:15 PM,82.9,73.4,73,30.04,10.0,South,9.2,-,N/A,,Scattered Clouds,190,2013-08-03 16:15:00
12:35 PM,83.3,73.6,72,30.04,10.0,SSW,4.6,-,N/A,,Scattered Clouds,210,2013-08-03 16:35:00
12:55 PM,83.8,73.6,71,30.04,10.0,SW,8.1,-,N/A,,Clear,220,2013-08-03 16:55:00
1:15 PM,84.9,72.0,65,30.04,10.0,SSW,8.1,-,N/A,,Clear,200,2013-08-03 17:15:00
1:35 PM,85.8,71.4,62,30.03,10.0,SW,5.8,-,N/A,,Clear,220,2013-08-03 17:35:00
1:55 PM,86.0,70.9,60,30.03,10.0,South,6.9,-,N/A,,Clear,170,2013-08-03 17:55:00
2:15 PM,86.0,70.9,60,30.02,10.0,SSW,6.9,-,N/A,,Clear,210,2013-08-03 18:15:00
2:35 PM,87.1,70.2,57,30.01,10.0,SSW,9.2,-,N/A,,Scattered Clouds,200,2013-08-03 18:35:00
2:55 PM,86.7,71.4,60,30.01,10.0,SSW,6.9,-,N/A,,Scattered Clouds,210,2013-08-03 18:55:00
3:15 PM,87.1,70.5,58,30.00,10.0,SSW,9.2,-,N/A,,Scattered Clouds,200,2013-08-03 19:15:00
3:35 PM,87.1,71.4,59,29.99,10.0,SSW,9.2,-,N/A,,Clear,200,2013-08-03 19:35:00
3:55 PM,86.9,71.8,61,29.99,10.0,SW,9.2,-,N/A,,Scattered Clouds,220,2013-08-03 19:55:00
4:15 PM,87.1,72.1,61,29.99,10.0,SW,6.9,-,N/A,,Scattered Clouds,220,2013-08-03 20:15:00
4:35 PM,87.8,70.2,56,29.98,10.0,SW,6.9,-,N/A,,Clear,230,2013-08-03 20:35:00
4:55 PM,87.1,70.0,57,29.98,10.0,SW,9.2,-,N/A,,Clear,230,2013-08-03 20:55:00
5:15 PM,86.9,70.9,59,29.98,10.0,SSW,6.9,-,N/A,,Scattered Clouds,210,2013-08-03 21:15:00
5:35 PM,86.2,71.1,60,29.98,10.0,WSW,5.8,-,N/A,,Clear,250,2013-08-03 21:35:00
5:55 PM,85.3,71.8,64,29.98,10.0,WSW,3.5,-,N/A,,Clear,240,2013-08-03 21:55:00
6:15 PM,85.5,71.2,62,29.98,10.0,West,3.5,-,N/A,,Clear,270,2013-08-03 22:15:00
6:35 PM,85.1,71.4,63,29.98,10.0,Calm,Calm,-,N/A,,Clear,0,2013-08-03 22:35:00
6:55 PM,84.4,71.8,66,29.98,10.0,WSW,3.5,-,N/A,,Clear,250,2013-08-03 22:55:00
7:15 PM,83.8,71.8,67,29.97,10.0,Calm,Calm,-,N/A,,Clear,0,2013-08-03 23:15:00
7:35 PM,83.3,72.0,68,29.98,10.0,Calm,Calm,-,N/A,,Clear,0,2013-08-03 23:35:00
7:55 PM,83.3,71.8,68,29.98,10.0,SW,3.5,-,N/A,,Clear,230,2013-08-03 23:55:00
8:15 PM,80.6,73.2,78,29.98,10.0,Calm,Calm,-,N/A,,Clear,0,2013-08-04 00:15:00
8:35 PM,78.4,73.9,86,29.99,10.0,Calm,Calm,-,N/A,,Clear,0,2013-08-04 00:35:00
8:55 PM,77.9,73.9,88,29.99,10.0,Calm,Calm,-,N/A,,Clear,0,2013-08-04 00:55:00
9:15 PM,77.4,73.4,88,29.99,10.0,Calm,Calm,-,N/A,,Clear,0,2013-08-04 01:15:00
9:35 PM,76.6,72.9,88,29.99,10.0,Calm,Calm,-,N/A,,Clear,0,2013-08-04 01:35:00
9:55 PM,75.4,72.3,90,30.00,7.0,Calm,Calm,-,N/A,,Clear,0,2013-08-04 01:55:00
10:15 PM,74.7,72.5,93,30.00,7.0,Calm,Calm,-,N/A,,Clear,0,2013-08-04 02:15:00
10:55 PM,74.1,71.8,92,30.01,7.0,Calm,Calm,-,N/A,,Clear,0,2013-08-04 02:55:00
11:15 PM,72.9,71.2,95,30.00,7.0,Calm,Calm,-,N/A,,Clear,0,2013-08-04 03:15:00
11:35 PM,72.7,71.6,96,30.00,7.0,Calm,Calm,-,N/A,,Clear,0,2013-08-04 03:35:00
11:55 PM,73.0,71.1,93,30.00,7.0,Calm,Calm,-,N/A,,Clear,0,2013-08-04 03:55:00